Time;durP1;ratioP1;P1;durP2;ratioP2;P2;SDS_P1;SDS_P2;PMS_P1;PMS_P2;Temp;Humidity;BMP_temperature;BMP_pressure;BME280_temperature;BME280_humidity;BME280_pressure;Samples;Min_cycle;Max_cycle;Signal;HPM_P1;HPM_P2
2022/05/14 00:01:36;;;;;;;3.05;1.10;;;;;;;25.71;31.71;101970.06;5075437;28;20057;-47
2022/05/14 00:04:07;;;;;;;1.55;0.70;;;;;;;25.67;31.77;101968.22;5075571;28;20067;-44
2022/05/14 00:06:35;;;;;;;4.03;0.70;;;;;;;25.63;31.88;101962.03;5075664;28;20028;-44
2022/05/14 00:09:05;;;;;;;2.42;0.80;;;;;;;25.71;31.71;101959.56;5074401;28;20111;-45
2022/05/14 00:14:22;;;;;;;2.63;0.73;;;;;;;25.69;31.82;101959.56;5067779;28;20402;-44
2022/05/14 00:16:52;;;;;;;1.58;0.60;;;;;;;25.64;32.10;101969.06;5074791;28;20033;-46
2022/05/14 00:19:21;;;;;;;1.55;0.40;;;;;;;25.67;31.79;101960.34;5075114;28;20089;-46
2022/05/14 00:21:49;;;;;;;1.48;0.43;;;;;;;25.65;31.80;101962.09;5075334;28;20021;-48
2022/05/14 00:24:18;;;;;;;0.95;0.47;;;;;;;25.61;31.69;101961.09;5074716;28;20040;-43
2022/05/14 00:26:47;;;;;;;2.13;0.40;;;;;;;25.74;31.71;101957.88;5075006;28;20600;-45
2022/05/14 00:29:15;;;;;;;1.73;0.68;;;;;;;25.71;31.77;101955.22;5074879;28;20032;-44
2022/05/14 00:31:44;;;;;;;1.95;0.50;;;;;;;25.68;31.63;101951.59;5074852;28;20112;-42
2022/05/14 00:34:12;;;;;;;2.83;0.75;;;;;;;25.68;31.85;101948.97;5075125;28;20048;-44
2022/05/14 00:36:41;;;;;;;1.00;0.52;;;;;;;25.70;31.37;101936.78;5073511;28;20386;-45
2022/05/14 00:39:09;;;;;;;2.25;0.73;;;;;;;25.61;31.66;101938.38;5074857;28;20025;-44
2022/05/14 00:41:39;;;;;;;3.35;0.70;;;;;;;25.60;31.71;101946.19;5074623;28;20476;-42
2022/05/14 00:44:08;;;;;;;4.40;0.68;;;;;;;25.67;31.64;101944.56;5074434;28;20028;-42
2022/05/14 00:46:45;;;;;;;1.15;0.55;;;;;;;25.65;31.68;101941.06;5074750;28;20028;-45
2022/05/14 00:49:14;;;;;;;2.05;0.63;;;;;;;25.50;31.57;101916.19;5074784;28;20020;-43
2022/05/14 00:51:45;;;;;;;2.13;0.63;;;;;;;25.62;31.45;101944.50;5073380;28;20024;-45
2022/05/14 00:54:22;;;;;;;5.38;0.63;;;;;;;25.64;31.91;101948.03;5073971;28;20028;-46
2022/05/14 00:57:02;;;;;;;2.65;0.75;;;;;;;25.64;31.71;101942.78;5074251;28;20021;-45
2022/05/14 00:59:30;;;;;;;1.75;0.60;;;;;;;25.62;31.79;101929.63;5074465;28;20025;-48
2022/05/14 01:02:00;;;;;;;1.38;0.47;;;;;;;25.62;31.65;101933.97;5074365;28;20028;-43
2022/05/14 01:04:29;;;;;;;2.55;0.85;;;;;;;25.62;31.75;101933.97;5073939;28;20090;-50
2022/05/14 01:07:02;;;;;;;1.08;0.45;;;;;;;25.52;31.87;101917.13;5074346;28;20032;-46
2022/05/14 01:09:30;;;;;;;3.13;0.70;;;;;;;25.57;31.92;101915.50;5074160;28;20028;-45
2022/05/14 01:11:59;;;;;;;4.43;0.50;;;;;;;25.63;31.74;101913.00;5074212;28;20028;-44
2022/05/14 01:14:27;;;;;;;1.65;0.60;;;;;;;25.65;31.55;101907.78;5074048;28;20020;-48
2022/05/14 01:16:56;;;;;;;1.27;0.40;;;;;;;25.60;31.71;101905.06;5074110;28;20077;-42
2022/05/14 01:19:24;;;;;;;2.63;0.70;;;;;;;25.51;31.79;101894.34;5072302;28;20029;-44
2022/05/14 01:22:31;;;;;;;1.60;0.60;;;;;;;25.54;31.77;101889.16;5074116;28;20025;-43
2022/05/14 01:28:06;;;;;;;4.10;1.02;;;;;;;25.50;32.03;101887.31;5065806;28;20478;-45
2022/05/14 01:30:35;;;;;;;4.45;0.55;;;;;;;25.45;31.71;101878.47;5073313;28;20020;-45
2022/05/14 01:33:06;;;;;;;1.73;0.50;;;;;;;25.48;31.62;101878.53;5073846;28;20032;-44
2022/05/14 01:35:41;;;;;;;1.98;0.68;;;;;;;25.44;31.97;101881.94;5073713;28;20104;-49
2022/05/14 01:38:09;;;;;;;1.45;0.70;;;;;;;25.51;31.88;101875.94;5073546;28;20028;-46
2022/05/14 01:40:38;;;;;;;2.20;0.60;;;;;;;25.49;32.09;101875.03;5073079;28;20031;-49
2022/05/14 01:43:07;;;;;;;2.65;0.73;;;;;;;25.49;31.94;101869.75;5073590;28;20032;-47
2022/05/14 01:45:35;;;;;;;3.45;0.70;;;;;;;25.57;31.91;101864.66;5073323;28;20028;-45
2022/05/14 01:48:04;;;;;;;1.80;0.65;;;;;;;25.55;31.80;101863.78;5072606;28;20063;-43
2022/05/14 01:50:33;;;;;;;3.15;1.15;;;;;;;25.50;31.53;101863.66;5073980;28;20028;-46
2022/05/14 01:53:02;;;;;;;2.05;0.60;;;;;;;25.45;31.80;101858.31;5073559;28;20062;-49
2022/05/14 01:55:31;;;;;;;4.97;0.90;;;;;;;25.41;32.06;101860.81;5073660;28;20028;-45
2022/05/14 01:57:59;;;;;;;3.03;0.60;;;;;;;25.40;31.57;101864.31;5073557;28;20082;-49
2022/05/14 02:00:28;;;;;;;6.05;1.15;;;;;;;25.36;31.68;101870.34;5073654;28;20031;-49
2022/05/14 02:02:57;;;;;;;2.38;0.60;;;;;;;25.34;31.72;101871.19;5073539;28;20060;-50
2022/05/14 02:05:26;;;;;;;1.90;0.60;;;;;;;25.38;31.92;101874.78;5072877;28;20035;-48
2022/05/14 02:07:54;;;;;;;2.38;0.93;;;;;;;25.34;32.03;101865.06;5072100;28;20034;-47
2022/05/14 02:10:23;;;;;;;2.08;0.63;;;;;;;25.41;31.83;101860.81;5073417;28;20173;-47
2022/05/14 02:12:51;;;;;;;2.83;0.80;;;;;;;25.34;32.02;101860.69;5073046;28;20025;-45
2022/05/14 02:15:20;;;;;;;1.92;0.63;;;;;;;25.37;31.98;101848.47;5073248;28;20035;-45
2022/05/14 02:17:48;;;;;;;3.80;0.80;;;;;;;25.36;31.92;101858.09;5073081;28;20546;-45
2022/05/14 02:20:19;;;;;;;1.70;0.75;;;;;;;25.30;31.94;101860.59;5073184;28;20033;-43
2022/05/14 02:22:49;;;;;;;2.28;1.02;;;;;;;25.27;31.78;101860.53;5073141;28;20040;-47
2022/05/14 02:25:19;;;;;;;3.47;0.88;;;;;;;25.22;32.11;101852.53;5072523;28;20161;-46
2022/05/14 02:27:47;;;;;;;2.22;0.88;;;;;;;25.09;31.91;101827.75;5073046;28;20394;-46
2022/05/14 02:30:16;;;;;;;2.58;0.60;;;;;;;25.26;32.04;101854.41;5071933;28;20028;-46
2022/05/14 02:32:44;;;;;;;1.38;0.68;;;;;;;25.24;32.02;101858.72;5071936;28;20049;-42
2022/05/14 02:35:13;;;;;;;2.85;0.77;;;;;;;25.17;31.98;101857.72;5073149;28;20029;-45
2022/05/14 02:37:41;;;;;;;2.88;0.82;;;;;;;25.18;32.39;101858.56;5071740;28;20021;-47
2022/05/14 02:40:10;;;;;;;3.85;0.95;;;;;;;25.17;32.09;101857.72;5073358;28;20040;-49
2022/05/14 02:42:39;;;;;;;3.30;0.90;;;;;;;25.24;32.10;101856.09;5077160;28;20031;-45
2022/05/14 02:45:08;;;;;;;3.08;0.70;;;;;;;25.20;31.92;101841.13;5076552;28;20381;-49
2022/05/14 02:47:37;;;;;;;1.85;0.68;;;;;;;25.17;32.19;101841.03;5077127;28;20381;-46
2022/05/14 02:50:07;;;;;;;3.00;0.90;;;;;;;25.15;32.05;101834.91;5076990;28;20028;-43
2022/05/14 02:52:36;;;;;;;1.85;0.68;;;;;;;25.17;31.99;101836.69;5075807;28;20099;-46
2022/05/14 02:55:06;;;;;;;2.67;0.88;;;;;;;25.11;32.11;101831.31;5076280;28;20031;-45
2022/05/14 02:57:35;;;;;;;2.60;0.75;;;;;;;25.02;32.12;101839.00;5076710;28;20024;-44
2022/05/14 03:00:05;;;;;;;2.47;0.85;;;;;;;25.10;32.28;101834.78;5076925;28;20016;-46
2022/05/14 03:02:34;;;;;;;2.92;0.82;;;;;;;25.11;32.09;101835.69;5076778;28;20020;-45
2022/05/14 03:05:03;;;;;;;2.53;1.00;;;;;;;25.03;32.12;101818.00;5075921;28;20492;-44
2022/05/14 03:07:31;;;;;;;2.97;1.00;;;;;;;25.09;32.06;101827.75;5075178;28;20378;-43
2022/05/14 03:10:00;;;;;;;4.93;1.05;;;;;;;25.11;32.16;101825.19;5076579;28;20025;-45
2022/05/14 03:12:28;;;;;;;2.88;0.60;;;;;;;25.07;31.96;101821.56;5076734;28;20092;-46
2022/05/14 03:14:56;;;;;;;1.95;0.80;;;;;;;25.07;31.96;101826.81;5076586;28;20029;-45
2022/05/14 03:17:24;;;;;;;1.55;0.65;;;;;;;25.01;31.98;101821.47;5076108;28;20386;-42
2022/05/14 03:19:53;;;;;;;2.08;0.70;;;;;;;24.93;32.34;101816.03;5076140;28;20116;-42
2022/05/14 03:22:21;;;;;;;1.83;0.60;;;;;;;24.94;32.07;101809.94;5076120;28;20529;-47
2022/05/14 03:24:51;;;;;;;2.45;0.88;;;;;;;25.00;31.88;101812.69;5075753;28;20116;-45
2022/05/14 03:27:19;;;;;;;2.83;0.70;;;;;;;24.96;32.35;101823.09;5076283;28;20024;-46
2022/05/14 03:29:48;;;;;;;1.50;0.63;;;;;;;24.97;32.09;101817.91;5076153;28;20054;-44
2022/05/14 03:32:19;;;;;;;1.85;0.77;;;;;;;24.94;32.04;101816.91;5075904;28;20072;-45
2022/05/14 03:34:48;;;;;;;3.88;1.10;;;;;;;24.87;32.17;101815.91;5076034;28;20111;-43
2022/05/14 03:37:16;;;;;;;2.67;0.95;;;;;;;24.93;32.17;101818.66;5058384;28;20547;-44
2022/05/14 03:39:45;;;;;;;3.05;0.70;;;;;;;24.96;32.32;101817.84;5075927;28;20116;-50
2022/05/14 03:42:15;;;;;;;2.58;0.95;;;;;;;24.88;32.16;101808.06;5075931;28;20074;-44
2022/05/14 03:45:17;;;;;;;2.60;0.70;;;;;;;24.88;32.38;101810.69;5075898;28;20017;-45
2022/05/14 03:47:45;;;;;;;3.90;0.98;;;;;;;24.92;32.15;101803.78;5075829;28;20504;-45
2022/05/14 03:50:14;;;;;;;4.30;1.10;;;;;;;25.01;31.92;101805.72;5075890;28;20028;-44
2022/05/14 03:52:43;;;;;;;3.65;0.90;;;;;;;24.96;32.10;101803.00;5075147;28;20032;-49
2022/05/14 03:55:11;;;;;;;2.97;0.98;;;;;;;24.88;32.19;101802.81;5075592;28;20119;-42
2022/05/14 03:57:40;;;;;;;1.45;0.60;;;;;;;24.79;31.93;101788.59;5075648;28;20020;-44
2022/05/14 04:00:11;;;;;;;2.08;0.85;;;;;;;24.79;32.27;101799.09;5075735;28;20032;-43
2022/05/14 04:02:40;;;;;;;4.45;1.20;;;;;;;24.81;31.89;101795.66;5075690;28;20029;-50
2022/05/14 04:05:08;;;;;;;2.55;0.93;;;;;;;24.81;32.15;101800.91;5075682;28;20035;-44
2022/05/14 04:07:37;;;;;;;4.88;1.00;;;;;;;24.78;32.40;101789.47;5075458;28;20478;-47
2022/05/14 04:10:06;;;;;;;3.55;0.80;;;;;;;24.83;31.88;101791.31;5075659;28;20036;-43
2022/05/14 04:12:35;;;;;;;1.98;0.55;;;;;;;24.87;32.24;101785.31;5075886;28;20111;-46
2022/05/14 04:15:03;;;;;;;3.60;1.20;;;;;;;24.85;31.92;101784.38;5075390;28;20032;-43
2022/05/14 04:17:31;;;;;;;3.38;1.02;;;;;;;24.78;31.81;101778.97;5075325;28;20029;-47
2022/05/14 04:20:00;;;;;;;2.80;0.82;;;;;;;24.81;31.94;101779.91;5075187;28;20063;-45
2022/05/14 04:22:28;;;;;;;2.70;0.95;;;;;;;24.73;32.21;101781.50;5074371;28;20036;-45
2022/05/14 04:24:57;;;;;;;2.97;1.17;;;;;;;24.76;32.28;101780.66;5073749;28;20378;-44
2022/05/14 04:27:26;;;;;;;2.15;0.80;;;;;;;24.73;31.91;101778.88;5075173;28;20162;-49
2022/05/14 04:29:54;;;;;;;3.53;0.93;;;;;;;24.65;32.36;101783.00;5075222;28;20539;-48
2022/05/14 04:32:22;;;;;;;2.78;0.90;;;;;;;24.70;32.13;101782.28;5075246;28;20041;-43
2022/05/14 04:34:51;;;;;;;5.72;1.20;;;;;;;24.61;32.31;101782.06;5075023;28;20028;-45
2022/05/14 04:37:19;;;;;;;2.45;0.75;;;;;;;24.59;32.07;101783.75;5074875;28;20031;-43
2022/05/14 04:39:49;;;;;;;3.15;1.17;;;;;;;24.60;32.01;101787.25;5057043;28;20124;-44
2022/05/14 04:42:17;;;;;;;3.60;0.98;;;;;;;24.56;32.05;101783.66;5074452;28;20033;-45
2022/05/14 04:44:46;;;;;;;3.42;0.88;;;;;;;24.57;32.34;101778.44;5074597;28;20028;-48
2022/05/14 04:47:16;;;;;;;3.65;1.20;;;;;;;24.55;32.22;101781.91;5074800;28;20031;-48
2022/05/14 04:49:47;;;;;;;6.50;1.05;;;;;;;24.44;32.13;101779.00;5074600;28;20024;-47
2022/05/14 04:52:16;;;;;;;5.43;1.27;;;;;;;24.49;32.26;101776.53;5073034;28;20064;-44
2022/05/14 04:54:45;;;;;;;3.03;1.10;;;;;;;24.46;32.30;101773.81;5074584;28;20028;-44
2022/05/14 04:57:13;;;;;;;2.90;0.80;;;;;;;24.47;32.09;101770.34;5074632;28;20058;-46
2022/05/14 04:59:42;;;;;;;3.72;1.10;;;;;;;24.43;32.32;101774.63;5074299;28;20035;-44
2022/05/14 05:04:57;;;;;;;3.58;1.10;;;;;;;24.44;32.36;101784.25;5065263;28;20039;-43
2022/05/14 05:07:26;;;;;;;4.25;1.17;;;;;;;24.35;32.27;101774.44;5074398;28;20033;-43
2022/05/14 05:09:54;;;;;;;3.03;1.15;;;;;;;24.47;32.02;101768.59;5074165;28;20436;-47
2022/05/14 05:12:23;;;;;;;3.72;1.00;;;;;;;24.44;32.27;101779.00;5074238;28;20024;-44
2022/05/14 05:14:50;;;;;;;3.75;0.95;;;;;;;24.48;32.20;101772.13;5072853;28;20107;-44
2022/05/14 05:17:18;;;;;;;4.45;0.95;;;;;;;24.39;32.22;101780.66;5074024;28;20467;-48
2022/05/14 05:19:47;;;;;;;4.97;1.60;;;;;;;24.36;32.12;101776.22;5074217;28;20025;-42
2022/05/14 05:22:16;;;;;;;3.85;1.20;;;;;;;24.39;32.17;101776.28;5074241;28;20063;-45
2022/05/14 05:24:44;;;;;;;4.10;1.20;;;;;;;24.40;31.89;101778.06;5073522;28;20059;-45
2022/05/14 05:27:13;;;;;;;6.53;1.40;;;;;;;24.37;32.26;101769.25;5072436;28;20497;-43
2022/05/14 05:29:41;;;;;;;5.05;1.40;;;;;;;24.28;32.04;101752.41;5073819;28;20028;-43
2022/05/14 05:32:10;;;;;;;5.00;1.20;;;;;;;24.32;32.23;101763.00;5072326;28;20404;-45
2022/05/14 05:34:38;;;;;;;3.15;1.13;;;;;;;24.39;32.10;101763.19;5073636;28;20082;-45
2022/05/14 05:37:07;;;;;;;4.50;0.80;;;;;;;24.45;32.19;101772.03;5073266;28;20444;-43
2022/05/14 05:39:35;;;;;;;7.97;1.25;;;;;;;24.45;31.93;101766.81;5073755;28;20024;-45
2022/05/14 05:42:04;;;;;;;8.07;1.17;;;;;;;24.51;31.66;101767.84;5073652;28;20021;-43
2022/05/14 05:44:33;;;;;;;7.90;1.48;;;;;;;24.55;32.11;101763.53;5073686;28;20482;-47
2022/05/14 05:47:06;;;;;;;6.57;1.30;;;;;;;24.57;31.92;101761.84;5073428;28;20493;-44
2022/05/14 05:49:36;;;;;;;5.70;1.30;;;;;;;24.54;32.27;101764.38;5089126;28;20085;-44
2022/05/14 05:52:04;;;;;;;4.38;1.08;;;;;;;24.65;32.23;101767.25;5073679;28;20074;-42
2022/05/14 05:57:31;;;;;;;6.78;1.75;;;;;;;24.85;31.44;101767.72;5069613;28;20078;-42
2022/05/14 06:00:00;;;;;;;2.80;0.93;;;;;;;24.91;31.72;101764.34;5072341;28;20103;-45
2022/05/14 06:02:28;;;;;;;2.78;0.90;;;;;;;24.94;31.64;101773.19;5073314;28;20032;-45
2022/05/14 06:04:57;;;;;;;5.05;1.15;;;;;;;24.96;31.79;101767.97;5073447;28;20078;-48
2022/05/14 06:07:25;;;;;;;2.63;0.65;;;;;;;24.95;31.74;101776.69;5073471;28;20032;-46
2022/05/14 06:09:54;;;;;;;4.18;0.93;;;;;;;25.03;31.33;101780.38;5073535;28;20432;-46
2022/05/14 06:12:23;;;;;;;6.70;1.55;;;;;;;24.96;31.63;101773.22;5072994;28;20021;-45
2022/05/14 06:14:50;;;;;;;4.07;1.00;;;;;;;24.99;31.87;101766.28;5072918;28;20068;-46
2022/05/14 06:17:19;;;;;;;6.57;1.20;;;;;;;24.98;31.40;101768.88;5073558;28;20552;-43
2022/05/14 06:19:47;;;;;;;2.28;0.77;;;;;;;24.94;31.58;101769.66;5073253;28;20028;-43
2022/05/14 06:22:16;;;;;;;4.57;1.70;;;;;;;24.91;31.61;101766.97;5072721;28;20032;-47
2022/05/14 06:24:45;;;;;;;3.95;1.17;;;;;;;24.89;31.77;101761.69;5072564;28;20040;-43
2022/05/14 06:27:13;;;;;;;2.38;0.95;;;;;;;24.89;31.80;101766.94;5072824;28;20382;-45
2022/05/14 06:29:42;;;;;;;2.13;1.13;;;;;;;24.93;31.62;101762.66;5073021;28;20107;-45
2022/05/14 06:32:10;;;;;;;3.50;1.00;;;;;;;24.88;32.16;101755.59;5073022;28;20043;-46
2022/05/14 06:34:39;;;;;;;3.58;1.05;;;;;;;25.01;31.75;101761.97;5072978;28;20029;-47
2022/05/14 06:37:07;;;;;;;6.78;1.23;;;;;;;25.10;31.97;101755.16;5072943;28;20445;-45
2022/05/14 06:39:36;;;;;;;2.92;1.20;;;;;;;25.13;31.91;101750.84;5071732;28;20112;-44
2022/05/14 06:42:05;;;;;;;4.20;1.23;;;;;;;25.13;31.96;101763.09;5072904;28;20163;-43
2022/05/14 06:44:33;;;;;;;2.70;0.82;;;;;;;25.18;31.87;101758.78;5072772;28;20115;-44
2022/05/14 06:47:02;;;;;;;1.85;0.82;;;;;;;25.24;32.32;101758.94;5071861;28;20096;-42
2022/05/14 06:49:30;;;;;;;4.47;1.20;;;;;;;25.28;32.40;101760.78;5073224;28;20125;-45
2022/05/14 06:52:01;;;;;;;4.18;0.90;;;;;;;25.31;32.04;101758.22;5072829;28;20033;-43
2022/05/14 06:54:31;;;;;;;7.55;0.77;;;;;;;25.34;31.93;101755.63;5072856;28;20534;-49
2022/05/14 06:57:02;;;;;;;2.35;0.68;;;;;;;25.41;32.10;101750.50;5072999;28;20090;-48
2022/05/14 06:59:30;;;;;;;3.67;0.98;;;;;;;25.38;32.53;101747.81;5071765;28;20037;-47
2022/05/14 07:01:59;;;;;;;3.53;1.20;;;;;;;25.43;32.25;101754.09;5071431;28;20469;-48
2022/05/14 07:07:13;;;;;;;3.22;0.93;;;;;;;25.51;32.13;101747.22;5071472;28;19912;-43
2022/05/14 07:09:40;;;;;;;2.97;0.90;;;;;;;25.59;32.27;101745.63;5073153;28;20035;-48
2022/05/14 07:12:09;;;;;;;2.75;0.93;;;;;;;25.68;32.54;101747.53;5072920;28;20347;-48
2022/05/14 07:14:44;;;;;;;3.60;0.98;;;;;;;25.76;32.29;101745.06;5072540;28;20146;-44
2022/05/14 07:17:11;;;;;;;;;;;;;;;25.89;31.93;101740.91;5072935;28;20366;-46
2022/05/14 07:19:40;;;;;;;3.08;0.82;;;;;;;25.85;32.05;101737.31;5072517;28;19912;-43
2022/05/14 07:22:12;;;;;;;4.28;1.27;;;;;;;25.93;31.66;101734.81;5072203;28;20035;-47
2022/05/14 07:24:41;;;;;;;4.72;0.88;;;;;;;25.88;31.73;101726.88;5071345;28;20512;-44
2022/05/14 07:27:11;;;;;;;3.30;1.05;;;;;;;25.92;31.82;101733.03;5072510;28;20035;-44
2022/05/14 07:29:41;;;;;;;2.45;1.15;;;;;;;25.91;31.60;101728.66;5075003;28;20020;-47
2022/05/14 07:32:12;;;;;;;5.28;1.75;;;;;;;25.94;31.43;101728.72;5075982;28;20029;-44
2022/05/14 07:34:41;;;;;;;4.38;1.20;;;;;;;25.95;31.60;101722.59;5076074;28;20028;-45
2022/05/14 07:37:13;;;;;;;5.25;1.20;;;;;;;25.96;31.17;101729.63;5076001;28;20416;-46
2022/05/14 07:39:51;;;;;;;3.65;1.10;;;;;;;25.96;31.09;101720.88;5076235;28;20510;-48
2022/05/14 07:42:39;;;;;;;5.40;1.48;;;;;;;25.98;31.08;101716.53;5075574;28;20462;-43
2022/05/14 07:45:09;;;;;;;4.00;1.30;;;;;;;25.94;31.28;101711.19;5074326;28;20024;-43
2022/05/14 07:47:39;;;;;;;5.15;1.30;;;;;;;25.96;31.20;101708.59;5075946;28;20074;-47
2022/05/14 07:50:08;;;;;;;4.85;1.88;;;;;;;25.97;31.18;101715.63;5075734;28;20025;-50
2022/05/14 07:52:38;;;;;;;3.08;1.60;;;;;;;25.92;30.81;101694.53;5074405;28;20029;-46
2022/05/14 07:55:08;;;;;;;2.95;0.75;;;;;;;26.05;30.98;101703.50;5076040;28;20024;-46
2022/05/14 07:57:36;;;;;;;6.00;1.20;;;;;;;26.07;30.65;101712.25;5075840;28;20059;-48
2022/05/14 08:00:06;;;;;;;4.38;1.02;;;;;;;26.06;31.19;101707.00;5075077;28;20056;-43
2022/05/14 08:02:35;;;;;;;3.83;0.95;;;;;;;26.02;30.74;101697.28;5075546;28;20016;-46
2022/05/14 08:05:04;;;;;;;6.90;1.05;;;;;;;26.07;30.82;101699.13;5075534;28;20024;-48
2022/05/14 08:07:33;;;;;;;2.40;0.80;;;;;;;26.09;30.85;101688.66;5075887;28;20409;-49
2022/05/14 08:10:02;;;;;;;4.40;1.00;;;;;;;26.09;30.97;101686.88;5075283;28;20024;-49
2022/05/14 08:12:39;;;;;;;5.90;1.05;;;;;;;26.11;30.69;101688.66;5073772;28;20530;-48
2022/05/14 08:15:08;;;;;;;4.72;0.90;;;;;;;26.17;30.90;101686.16;5075406;28;20039;-47
2022/05/14 08:17:37;;;;;;;5.95;0.98;;;;;;;26.13;30.76;101672.09;5075366;28;20048;-45
2022/05/14 08:20:06;;;;;;;5.47;1.30;;;;;;;26.16;31.12;101672.13;5075202;28;20033;-44
2022/05/14 08:25:22;;;;;;;3.03;1.23;;;;;;;26.31;30.83;101663.56;5071301;28;20048;-44
2022/05/14 08:27:51;;;;;;;3.83;0.90;;;;;;;26.34;30.97;101661.00;5074923;28;20063;-43
2022/05/14 08:30:23;;;;;;;5.82;1.23;;;;;;;26.45;30.84;101654.97;5075294;28;20382;-42
2022/05/14 08:32:52;;;;;;;2.95;0.73;;;;;;;26.45;31.24;101642.72;5075280;28;20024;-43
2022/05/14 08:35:21;;;;;;;2.53;0.90;;;;;;;26.53;30.90;101648.97;5075038;28;20032;-43
2022/05/14 08:37:51;;;;;;;1.92;0.85;;;;;;;26.54;30.87;101650.72;5073690;28;20020;-43
2022/05/14 08:40:23;;;;;;;3.17;0.90;;;;;;;26.61;31.14;101654.31;5073734;28;20029;-43
2022/05/14 08:42:54;;;;;;;3.25;0.95;;;;;;;26.62;31.31;101645.56;5073880;28;20083;-45
2022/05/14 08:45:23;;;;;;;2.92;0.82;;;;;;;26.73;30.92;101652.69;5074972;28;20063;-43
2022/05/14 08:47:59;;;;;;;3.55;0.90;;;;;;;26.72;31.12;101654.47;5090506;28;20036;-44
2022/05/14 08:50:34;;;;;;;2.92;0.95;;;;;;;26.74;30.92;101649.19;5075285;28;20069;-44
2022/05/14 08:53:03;;;;;;;3.08;0.80;;;;;;;26.78;30.86;101649.28;5073610;28;20527;-42
2022/05/14 08:55:54;;;;;;;3.75;1.13;;;;;;;26.82;30.93;101645.81;5073732;28;20037;-42
2022/05/14 08:58:30;;;;;;;5.20;1.10;;;;;;;26.86;30.97;101636.25;5074673;28;20551;-43
2022/05/14 09:01:02;;;;;;;1.58;0.70;;;;;;;26.92;30.74;101630.16;5074867;28;20044;-46
2022/05/14 09:03:32;;;;;;;2.95;1.10;;;;;;;26.96;30.80;101624.06;5073327;28;20020;-42
2022/05/14 09:06:01;;;;;;;3.17;1.40;;;;;;;26.95;31.05;101630.19;5073194;28;20044;-45
2022/05/14 09:08:29;;;;;;;3.95;1.00;;;;;;;27.03;30.91;101620.59;5073110;28;20020;-42
2022/05/14 09:11:02;;;;;;;2.25;0.98;;;;;;;27.02;31.02;101629.38;5073358;28;20027;-43
2022/05/14 09:13:35;;;;;;;2.72;0.70;;;;;;;27.02;30.86;101633.78;5074311;28;20032;-44
2022/05/14 09:16:04;;;;;;;2.97;1.10;;;;;;;27.03;30.84;101617.97;5074224;28;20021;-44
2022/05/14 09:18:35;;;;;;;3.85;1.00;;;;;;;27.10;30.81;101619.81;5073842;28;20020;-43
2022/05/14 09:21:06;;;;;;;4.88;0.80;;;;;;;27.06;30.63;101620.66;5073173;28;20482;-43
2022/05/14 09:23:38;;;;;;;3.05;1.15;;;;;;;27.13;30.43;101629.50;5072312;28;20383;-46
2022/05/14 09:26:13;;;;;;;3.10;1.00;;;;;;;27.17;30.44;101614.59;5073849;28;20044;-45
2022/05/14 09:28:54;;;;;;;4.13;1.15;;;;;;;27.15;30.93;101610.19;5056514;28;20028;-44
2022/05/14 09:31:36;;;;;;;3.28;0.90;;;;;;;27.20;30.51;101606.72;5073921;28;20052;-44
2022/05/14 09:34:11;;;;;;;4.00;1.10;;;;;;;27.20;30.67;101607.63;5073981;28;20027;-46
2022/05/14 09:36:41;;;;;;;3.85;1.45;;;;;;;27.28;30.36;101598.03;5074059;28;20464;-43
2022/05/14 09:39:15;;;;;;;4.55;0.90;;;;;;;27.33;30.33;101595.44;5072802;28;20025;-43
2022/05/14 09:41:49;;;;;;;4.75;1.17;;;;;;;27.36;30.52;101592.81;5072470;28;20020;-44
2022/05/14 09:44:22;;;;;;;2.73;0.87;;;;;;;27.38;30.49;101601.63;5072504;28;20469;-45
2022/05/14 09:46:52;;;;;;;2.03;0.82;;;;;;;27.32;30.45;101585.75;5073511;28;20650;-44
2022/05/14 09:49:25;;;;;;;2.20;0.70;;;;;;;27.32;30.86;101593.66;5073448;28;20028;-45
2022/05/14 09:52:04;;;;;;;2.30;0.75;;;;;;;27.39;30.66;101598.13;5072164;28;20028;-45
2022/05/14 09:54:42;;;;;;;3.17;0.80;;;;;;;27.42;30.67;101587.63;5073612;28;20020;-45
2022/05/14 09:57:48;;;;;;;3.42;1.05;;;;;;;27.41;30.78;101584.94;5072599;28;20020;-44
2022/05/14 10:00:36;;;;;;;4.40;1.02;;;;;;;27.43;30.56;101576.22;5073441;28;20572;-46
2022/05/14 10:03:39;;;;;;;2.75;1.00;;;;;;;27.43;30.54;101584.13;5070735;28;20169;-44
2022/05/14 10:06:27;;;;;;;2.95;0.95;;;;;;;27.45;30.61;101573.56;5072007;28;20032;-46
2022/05/14 10:09:21;;;;;;;4.20;1.00;;;;;;;27.44;30.79;101570.06;5067383;28;20474;-44
2022/05/14 10:11:54;;;;;;;2.95;0.85;;;;;;;27.54;30.73;101585.97;5065081;28;20504;-44
2022/05/14 10:14:32;;;;;;;4.80;0.80;;;;;;;27.52;30.65;101574.53;5072024;28;20024;-43
2022/05/14 10:17:05;;;;;;;2.83;0.75;;;;;;;27.54;30.58;101575.44;5073469;28;20032;-45
2022/05/14 10:19:42;;;;;;;3.05;0.88;;;;;;;27.54;30.68;101575.44;5073542;28;20100;-44
2022/05/14 10:22:16;;;;;;;3.47;0.98;;;;;;;27.47;30.67;101576.28;5073436;28;20021;-43
2022/05/14 10:28:13;;;;;;;5.93;1.67;;;;;;;27.48;30.59;101571.00;5067719;28;20504;-45
2022/05/14 10:31:01;;;;;;;6.78;1.40;;;;;;;27.45;30.55;101573.56;5069957;28;20048;-44
2022/05/14 10:33:32;;;;;;;6.30;1.38;;;;;;;27.49;30.55;101571.88;5065875;28;20508;-44
2022/05/14 10:36:10;;;;;;;3.40;1.08;;;;;;;27.41;30.75;101575.31;5073073;28;20032;-44
2022/05/14 10:38:45;;;;;;;8.00;1.73;;;;;;;27.43;30.96;101570.03;5072714;28;20029;-45
2022/05/14 10:41:22;;;;;;;8.98;1.23;;;;;;;27.45;30.83;101573.56;5073141;28;20104;-43
2022/05/14 10:43:56;;;;;;;7.43;1.35;;;;;;;27.43;30.68;101565.66;5071759;28;20024;-43
2022/05/14 10:46:24;;;;;;;;;;;;;;;27.44;31.03;101572.72;5072177;28;20053;-42
2022/05/14 10:49:13;;;;;;;5.18;1.30;;;;;;;27.48;31.17;101562.19;5072849;28;20005;-43
2022/05/14 10:51:46;;;;;;;6.00;1.15;;;;;;;27.50;30.88;101560.47;5063150;28;20033;-45
2022/05/14 10:54:17;;;;;;;5.47;1.52;;;;;;;27.44;31.36;101554.25;5071651;28;20524;-43
2022/05/14 10:56:55;;;;;;;3.47;1.25;;;;;;;27.48;30.99;101557.84;5073434;28;20036;-44
2022/05/14 10:59:43;;;;;;;5.70;1.58;;;;;;;27.44;31.59;101556.91;5071866;28;20116;-43
2022/05/14 11:02:12;;;;;;;6.38;1.63;;;;;;;27.43;31.85;101544.59;5075227;28;20043;-45
2022/05/14 11:04:42;;;;;;;6.18;1.70;;;;;;;27.51;31.75;101547.31;5076731;28;20473;-44
2022/05/14 11:07:34;;;;;;;4.20;1.10;;;;;;;27.53;31.53;101542.03;5076093;28;20029;-42
2022/05/14 11:10:18;;;;;;;7.50;1.52;;;;;;;27.59;31.63;101539.47;5076989;28;20032;-42
2022/05/14 11:12:47;;;;;;;4.22;1.80;;;;;;;27.56;31.78;101539.44;5076280;28;20032;-43
2022/05/14 11:15:28;;;;;;;7.20;1.65;;;;;;;27.61;31.92;101543.00;5075845;28;20032;-43
2022/05/14 11:18:09;;;;;;;5.53;1.95;;;;;;;27.61;32.17;101543.00;5076484;28;20028;-42
2022/05/14 11:20:39;;;;;;;5.78;2.42;;;;;;;27.66;33.14;101546.53;5075014;28;20111;-43
2022/05/14 11:23:12;;;;;;;10.40;2.25;;;;;;;27.63;32.89;101535.97;5074715;28;20044;-43
2022/05/14 11:25:40;;;;;;;10.45;2.25;;;;;;;27.68;33.38;101539.50;5074742;28;20040;-45
2022/05/14 11:28:10;;;;;;;8.93;2.25;;;;;;;27.72;33.01;101536.03;5074928;28;20098;-44
2022/05/14 11:30:42;;;;;;;8.60;1.83;;;;;;;27.80;32.65;101528.16;5076382;28;20020;-46
2022/05/14 11:33:29;;;;;;;5.35;1.58;;;;;;;27.82;32.08;101530.78;5075182;28;20028;-45
2022/05/14 11:36:00;;;;;;;4.57;1.70;;;;;;;27.81;31.91;101534.31;5072047;28;20496;-45
2022/05/14 11:38:29;;;;;;;4.70;1.58;;;;;;;27.82;31.74;101529.06;5074901;28;20028;-47
2022/05/14 11:40:59;;;;;;;3.95;1.20;;;;;;;27.83;31.41;101530.81;5076020;28;20032;-44
2022/05/14 11:43:32;;;;;;;4.03;1.65;;;;;;;27.90;31.70;101529.97;5075837;28;20040;-45
2022/05/14 11:46:11;;;;;;;8.98;1.40;;;;;;;27.84;31.67;101524.69;5075926;28;20398;-43
2022/05/14 11:48:54;;;;;;;6.22;1.65;;;;;;;27.84;31.55;101529.06;5076445;28;20060;-43
2022/05/14 11:51:51;;;;;;;7.22;2.00;;;;;;;27.83;31.32;101529.94;5074878;28;20462;-43
2022/05/14 11:54:30;;;;;;;5.75;1.92;;;;;;;27.70;31.10;101524.59;5071567;28;20037;-46
2022/05/14 11:57:09;;;;;;;5.57;1.40;;;;;;;27.67;31.16;101537.75;5074887;28;20073;-46
2022/05/14 11:59:58;;;;;;;6.65;1.27;;;;;;;27.66;31.21;101522.81;5075800;28;20021;-46
2022/05/14 12:02:37;;;;;;;4.63;1.40;;;;;;;27.69;31.25;101529.88;5070402;28;20167;-45
2022/05/14 12:05:09;;;;;;;3.03;1.35;;;;;;;27.80;31.01;101522.91;5075042;28;20032;-43
2022/05/14 12:08:00;;;;;;;3.92;1.20;;;;;;;27.82;31.01;101530.78;5074232;28;20535;-43